Terminal Aerodrome Forecast
Issued by NWS Mt. Holly, NJ

Home | Current Version | Previous Version | Text Only | Print | Product List | Glossary On
Versions: 1 2 3 4 5 6 7 8 9 10 11 12 13 14 15 16 17 18 19 20 21 22 23
708
FTUS41 KPHI 112333
TAFABE
TAF
KABE 112333Z 1200/1224 28010G20KT P6SM SCT050
     FM120400 27006KT P6SM SCT150
     FM121500 23007KT P6SM BKN120
     FM122100 22007KT P6SM OVC050
      TEMPO 1221/1223 3SM -SN BR OVC025=

USA.gov is the U.S. government's official web portal to all federal, state and local government web resources and services.